Time;durP1;ratioP1;P1;durP2;ratioP2;P2;SDS_P1;SDS_P2;PMS_P1;PMS_P2;Temp;Humidity;BMP_temperature;BMP_pressure;BME280_temperature;BME280_humidity;BME280_pressure;Samples;Min_cycle;Max_cycle;Signal;HPM_P1;HPM_P2
2022/08/18 00:00:12;;;;;;;14.35;5.50;;;18.90;99.90;;;;;;5116385;27;20070;-58
2022/08/18 00:02:39;;;;;;;17.85;6.00;;;18.90;99.90;;;;;;5134629;27;20055;-59
2022/08/18 00:05:07;;;;;;;11.27;4.97;;;18.90;99.90;;;;;;5134227;27;20051;-59
2022/08/18 00:07:34;;;;;;;13.68;6.10;;;18.80;99.90;;;;;;5115035;27;20059;-59
2022/08/18 00:10:02;;;;;;;15.15;5.45;;;18.80;99.90;;;;;;5133812;27;20068;-58
2022/08/18 00:12:33;;;;;;;15.15;5.68;;;18.80;99.90;;;;;;5116617;27;20123;-59
2022/08/18 00:15:03;;;;;;;11.90;5.97;;;18.80;99.90;;;;;;5122671;27;20478;-58
2022/08/18 00:17:31;;;;;;;14.73;6.25;;;18.80;99.90;;;;;;5155525;27;20047;-59
2022/08/18 00:19:58;;;;;;;13.48;6.57;;;18.80;99.90;;;;;;5155532;27;20054;-59
2022/08/18 00:22:25;;;;;;;15.30;5.82;;;18.80;99.90;;;;;;5154806;27;20074;-58
2022/08/18 00:24:54;;;;;;;17.45;6.18;;;18.90;99.90;;;;;;5136725;27;20059;-59
2022/08/18 00:27:23;;;;;;;11.88;5.70;;;18.80;99.90;;;;;;5155865;27;20451;-58
2022/08/18 00:29:53;;;;;;;12.80;6.10;;;18.80;99.90;;;;;;5146274;27;20095;-59
2022/08/18 00:32:22;;;;;;;18.33;6.30;;;18.80;99.90;;;;;;5134511;27;20448;-59
2022/08/18 00:34:48;;;;;;;12.88;6.63;;;18.70;99.90;;;;;;5136639;27;20439;-59
2022/08/18 00:37:16;;;;;;;13.95;5.78;;;18.70;99.90;;;;;;5154834;27;20074;-58
2022/08/18 00:39:43;;;;;;;15.57;5.55;;;18.70;99.90;;;;;;5155190;27;20529;-59
2022/08/18 00:42:16;;;;;;;18.42;6.55;;;18.70;99.90;;;;;;5152531;27;20091;-59
2022/08/18 00:44:43;;;;;;;13.40;6.65;;;18.70;99.90;;;;;;5154852;27;20070;-59
2022/08/18 00:47:11;;;;;;;23.77;7.70;;;18.70;99.90;;;;;;5154622;27;20514;-59
2022/08/18 00:49:41;;;;;;;15.48;6.05;;;18.60;99.90;;;;;;5154306;27;20046;-58
2022/08/18 00:52:09;;;;;;;13.45;5.93;;;18.60;99.90;;;;;;5136022;27;20058;-59
2022/08/18 00:54:39;;;;;;;11.68;6.47;;;18.60;99.90;;;;;;5154592;27;20047;-59
2022/08/18 00:57:07;;;;;;;13.27;6.13;;;18.60;99.90;;;;;;5145778;27;20043;-59
2022/08/18 00:59:41;;;;;;;16.65;6.65;;;18.60;99.90;;;;;;5115504;27;20055;-58
2022/08/18 01:02:14;;;;;;;14.63;6.18;;;18.60;99.90;;;;;;5134025;27;20383;-59
2022/08/18 01:04:48;;;;;;;12.05;5.97;;;18.60;99.90;;;;;;5133484;27;20043;-59
2022/08/18 01:07:19;;;;;;;15.82;5.78;;;18.60;99.90;;;;;;5133932;27;20130;-59
2022/08/18 01:09:47;;;;;;;14.05;6.45;;;18.60;99.90;;;;;;5114925;28;20047;-58
2022/08/18 01:12:14;;;;;;;15.00;6.55;;;18.60;99.90;;;;;;5133556;27;20047;-59
2022/08/18 01:14:41;;;;;;;15.85;6.88;;;18.60;99.90;;;;;;5133789;28;20043;-59
2022/08/18 01:22:58;;;;;;;;;;;18.60;99.90;;;;;;5074355;28;20052;-59
2022/08/18 01:28:09;;;;;;;16.15;5.88;;;18.70;99.90;;;;;;5107481;28;20509;-58
2022/08/18 01:30:47;;;;;;;15.40;7.00;;;18.70;99.90;;;;;;5115551;28;20055;-59
2022/08/18 01:33:14;;;;;;;17.63;6.32;;;18.70;99.90;;;;;;5114949;28;20563;-59
2022/08/18 01:35:43;;;;;;;18.98;6.93;;;18.70;99.90;;;;;;5134687;27;20046;-59
2022/08/18 01:38:12;;;;;;;17.08;6.18;;;18.70;99.90;;;;;;5135580;27;20498;-58
2022/08/18 01:40:39;;;;;;;17.15;6.65;;;18.70;99.90;;;;;;5116626;28;20047;-59
2022/08/18 01:43:06;;;;;;;15.43;6.63;;;18.80;99.90;;;;;;5133750;28;20083;-59
2022/08/18 01:45:33;;;;;;;20.23;7.18;;;18.80;99.90;;;;;;5132882;28;20039;-59
2022/08/18 01:48:00;;;;;;;15.15;7.30;;;18.80;99.90;;;;;;5132897;28;20051;-59
2022/08/18 01:50:28;;;;;;;16.30;6.53;;;18.80;99.90;;;;;;5115500;28;20103;-59
2022/08/18 01:52:55;;;;;;;20.30;6.85;;;18.80;99.90;;;;;;5134739;27;20047;-57
2022/08/18 01:55:25;;;;;;;23.25;7.72;;;18.70;99.90;;;;;;5154756;27;20455;-58
2022/08/18 01:57:52;;;;;;;15.05;8.52;;;18.80;99.90;;;;;;5158449;27;20447;-60
2022/08/18 02:00:19;;;;;;;22.13;7.57;;;18.80;99.90;;;;;;5149810;27;20091;-59
2022/08/18 02:02:47;;;;;;;20.52;7.68;;;18.80;99.90;;;;;;5155635;27;20103;-59
2022/08/18 02:05:18;;;;;;;13.35;6.70;;;18.80;99.90;;;;;;5158135;27;20493;-59
2022/08/18 02:07:44;;;;;;;13.63;6.75;;;18.90;99.90;;;;;;5157816;27;20051;-60
2022/08/18 02:10:12;;;;;;;18.60;7.25;;;18.90;99.90;;;;;;5138938;27;20055;-59
2022/08/18 02:12:41;;;;;;;22.55;7.88;;;18.90;99.90;;;;;;5158039;27;20069;-58
2022/08/18 02:15:08;;;;;;;16.75;7.05;;;18.90;99.90;;;;;;5138449;27;20087;-57
2022/08/18 02:17:37;;;;;;;22.92;8.30;;;18.90;99.90;;;;;;5147323;27;20518;-58
2022/08/18 02:20:06;;;;;;;15.68;8.20;;;18.90;99.90;;;;;;5118935;27;20499;-59
2022/08/18 02:22:33;;;;;;;20.65;7.75;;;18.90;99.90;;;;;;5136572;27;20055;-59
2022/08/18 02:24:59;;;;;;;15.45;6.65;;;18.90;99.90;;;;;;5149306;27;20054;-58
2022/08/18 02:27:27;;;;;;;18.40;8.30;;;18.90;99.90;;;;;;5138924;27;20054;-59
2022/08/18 02:29:56;;;;;;;20.67;7.38;;;18.90;99.90;;;;;;5157430;27;20050;-59
2022/08/18 02:32:22;;;;;;;20.80;7.75;;;18.90;99.90;;;;;;5157449;27;20082;-59
2022/08/18 02:34:49;;;;;;;13.35;6.88;;;18.90;99.90;;;;;;5156968;27;20082;-58
2022/08/18 02:37:16;;;;;;;19.77;7.90;;;18.90;99.90;;;;;;5156820;27;20538;-58
2022/08/18 02:39:43;;;;;;;15.57;7.45;;;18.90;99.90;;;;;;5157681;27;20085;-59
2022/08/18 02:42:12;;;;;;;13.60;6.53;;;18.90;99.90;;;;;;5156670;27;20095;-58
2022/08/18 02:44:39;;;;;;;18.58;7.50;;;18.90;99.90;;;;;;5138852;27;20050;-59
2022/08/18 02:47:07;;;;;;;22.05;7.25;;;18.90;99.90;;;;;;5138177;27;20082;-59
2022/08/18 02:49:35;;;;;;;15.40;7.45;;;18.90;99.90;;;;;;5138092;27;20384;-58
2022/08/18 02:52:03;;;;;;;21.05;7.20;;;18.90;99.90;;;;;;5117900;27;20495;-60
2022/08/18 02:54:30;;;;;;;18.50;7.65;;;18.90;99.90;;;;;;5136434;27;20090;-59
2022/08/18 02:56:57;;;;;;;15.38;7.30;;;18.90;99.90;;;;;;5135683;27;20403;-59
2022/08/18 02:59:26;;;;;;;16.65;7.97;;;18.90;99.90;;;;;;5117959;27;20055;-59
2022/08/18 03:01:55;;;;;;;18.15;6.57;;;19.00;99.90;;;;;;5136299;27;20043;-59
2022/08/18 03:04:26;;;;;;;17.65;7.13;;;18.90;99.90;;;;;;5134836;27;20498;-58
2022/08/18 03:06:53;;;;;;;17.88;7.18;;;18.90;99.90;;;;;;5136229;27;20047;-58
2022/08/18 03:09:20;;;;;;;17.90;7.10;;;19.00;99.90;;;;;;5135792;27;20127;-58
2022/08/18 03:11:47;;;;;;;13.27;6.78;;;19.00;99.90;;;;;;5117011;27;20051;-59
2022/08/18 03:14:15;;;;;;;16.45;7.53;;;19.00;99.90;;;;;;5144150;27;20046;-59
2022/08/18 03:16:45;;;;;;;19.77;7.38;;;19.00;99.90;;;;;;5156209;27;20050;-59
2022/08/18 03:19:15;;;;;;;20.13;8.50;;;18.90;99.90;;;;;;5156949;27;20122;-59
2022/08/18 03:21:45;;;;;;;17.65;7.97;;;18.90;99.90;;;;;;5156582;27;20057;-59
2022/08/18 03:24:12;;;;;;;;;;;18.90;99.90;;;;;;5156515;27;20099;-58
2022/08/18 03:26:41;;;;;;;20.83;8.20;;;18.80;99.90;;;;;;5137923;27;19940;-58
2022/08/18 03:29:09;;;;;;;16.80;7.82;;;18.80;99.90;;;;;;5146659;27;20079;-59
2022/08/18 03:31:38;;;;;;;15.85;8.30;;;18.80;99.90;;;;;;5116509;27;20116;-59
2022/08/18 03:34:07;;;;;;;24.20;7.95;;;18.90;99.90;;;;;;5117206;27;20091;-59
2022/08/18 03:36:35;;;;;;;14.25;7.00;;;18.80;99.90;;;;;;5117016;27;20119;-59
2022/08/18 03:39:05;;;;;;;17.52;7.72;;;18.80;99.90;;;;;;5135296;27;20051;-58
2022/08/18 03:41:32;;;;;;;14.77;7.63;;;18.90;99.90;;;;;;5139996;27;20472;-59
2022/08/18 03:44:00;;;;;;;15.32;7.70;;;18.90;99.90;;;;;;5156332;27;20458;-59
2022/08/18 03:46:28;;;;;;;12.52;7.00;;;18.90;99.90;;;;;;5155336;27;20038;-58
2022/08/18 03:48:58;;;;;;;13.70;6.72;;;18.90;99.90;;;;;;5156278;27;20082;-58
2022/08/18 03:51:27;;;;;;;12.25;6.85;;;18.90;99.90;;;;;;5155761;27;20050;-58
2022/08/18 03:53:57;;;;;;;14.32;7.60;;;19.00;99.90;;;;;;5136925;27;20134;-59
2022/08/18 03:56:27;;;;;;;18.35;5.85;;;19.00;99.90;;;;;;5155913;27;20046;-57
2022/08/18 03:58:56;;;;;;;11.95;6.00;;;19.00;99.90;;;;;;5155071;27;20119;-58
2022/08/18 04:01:26;;;;;;;12.80;6.90;;;18.90;99.90;;;;;;5136887;27;20058;-59
2022/08/18 04:03:55;;;;;;;13.13;6.15;;;19.00;99.90;;;;;;5155822;27;20071;-58
2022/08/18 04:06:25;;;;;;;11.15;5.63;;;18.90;99.90;;;;;;5155281;27;20043;-57
2022/08/18 04:08:53;;;;;;;12.10;6.70;;;18.90;99.90;;;;;;5120815;27;20104;-58
2022/08/18 04:11:20;;;;;;;16.55;7.63;;;18.90;99.90;;;;;;5133815;27;20047;-58
2022/08/18 04:13:48;;;;;;;14.32;7.50;;;18.90;99.90;;;;;;5139275;27;20103;-58
2022/08/18 04:16:16;;;;;;;11.32;7.65;;;18.90;99.90;;;;;;5154073;27;20099;-58
2022/08/18 04:18:43;;;;;;;10.48;7.05;;;18.80;99.90;;;;;;5155682;27;20051;-59
2022/08/18 04:21:12;;;;;;;17.23;7.20;;;18.80;99.90;;;;;;5136512;27;20500;-59
2022/08/18 04:23:40;;;;;;;19.45;7.80;;;18.80;99.90;;;;;;5136722;27;20554;-58
2022/08/18 04:26:08;;;;;;;11.00;6.88;;;18.90;99.90;;;;;;5155391;27;20114;-58
2022/08/18 04:28:35;;;;;;;12.20;7.93;;;18.80;99.90;;;;;;5148403;27;20107;-58
2022/08/18 04:31:09;;;;;;;11.32;7.57;;;18.80;99.90;;;;;;5134582;27;20083;-59
2022/08/18 04:33:37;;;;;;;16.05;7.70;;;18.80;99.90;;;;;;5134424;27;20047;-59
2022/08/18 04:36:09;;;;;;;10.93;7.30;;;18.80;99.90;;;;;;5123784;27;20107;-59
2022/08/18 04:38:37;;;;;;;14.60;7.53;;;18.70;99.90;;;;;;5144305;27;20049;-59
2022/08/18 04:41:04;;;;;;;18.27;9.07;;;18.80;99.90;;;;;;5144996;27;20581;-58
2022/08/18 04:43:32;;;;;;;11.57;7.28;;;18.80;99.90;;;;;;5147093;27;20046;-60
2022/08/18 04:46:00;;;;;;;12.70;8.40;;;18.80;99.90;;;;;;5143798;27;20043;-59
2022/08/18 04:48:32;;;;;;;15.98;10.13;;;18.80;99.90;;;;;;5144435;27;20047;-60
2022/08/18 04:51:03;;;;;;;14.15;9.15;;;18.80;99.90;;;;;;5143700;27;20393;-60
2022/08/18 04:53:46;;;;;;;13.90;9.40;;;18.80;99.90;;;;;;5131467;27;20054;-60
2022/08/18 04:56:25;;;;;;;15.82;10.05;;;18.80;99.90;;;;;;5147531;27;20175;-59
2022/08/18 04:58:54;;;;;;;15.20;10.70;;;18.80;99.90;;;;;;5153889;27;20042;-59
2022/08/18 05:01:23;;;;;;;16.50;10.02;;;18.80;99.90;;;;;;5134750;27;20085;-60
2022/08/18 05:03:53;;;;;;;22.42;10.50;;;18.80;99.90;;;;;;5146759;27;20585;-60
2022/08/18 05:06:24;;;;;;;16.25;10.75;;;18.80;99.90;;;;;;5132982;27;20086;-59
2022/08/18 05:08:52;;;;;;;15.30;9.75;;;18.80;99.90;;;;;;5149001;27;20074;-59
2022/08/18 05:11:19;;;;;;;17.20;7.63;;;18.80;99.90;;;;;;5137828;27;20103;-59
2022/08/18 05:13:47;;;;;;;17.05;8.30;;;18.80;99.90;;;;;;5146188;27;20092;-59
2022/08/18 05:16:13;;;;;;;13.60;8.50;;;18.90;99.90;;;;;;5145287;27;20042;-59
2022/08/18 05:18:41;;;;;;;11.30;6.60;;;18.90;99.90;;;;;;5143978;27;20446;-60
2022/08/18 05:21:13;;;;;;;8.45;4.85;;;18.90;99.90;;;;;;5142916;27;20047;-59
2022/08/18 05:23:40;;;;;;;11.85;5.78;;;19.00;99.90;;;;;;5151898;27;20458;-59
2022/08/18 05:26:08;;;;;;;11.80;5.70;;;19.00;99.90;;;;;;5142013;27;20042;-58
2022/08/18 05:28:36;;;;;;;11.65;5.30;;;19.00;99.90;;;;;;5147978;27;20074;-58
2022/08/18 05:31:07;;;;;;;13.05;5.78;;;19.00;99.90;;;;;;5140029;27;20075;-59
2022/08/18 05:33:34;;;;;;;7.63;4.53;;;19.10;99.90;;;;;;5133379;27;20053;-59
2022/08/18 05:36:04;;;;;;;10.02;5.65;;;19.10;99.90;;;;;;5128200;27;20061;-58
2022/08/18 05:38:44;;;;;;;9.70;5.10;;;19.10;99.90;;;;;;5130330;27;20055;-58
2022/08/18 05:41:13;;;;;;;14.23;5.78;;;19.20;99.90;;;;;;5121001;27;20050;-58
2022/08/18 05:43:42;;;;;;;11.07;4.70;;;19.20;99.90;;;;;;5131128;27;20086;-58
2022/08/18 05:46:10;;;;;;;11.07;5.45;;;19.20;99.90;;;;;;5146865;27;20050;-59
2022/08/18 05:48:38;;;;;;;9.73;5.15;;;19.20;99.90;;;;;;5151074;27;20507;-58
2022/08/18 05:51:16;;;;;;;14.35;5.70;;;19.20;99.90;;;;;;5113994;27;20055;-59
2022/08/18 05:56:48;;;;;;;15.93;6.30;;;19.30;99.90;;;;;;5116261;27;20078;-60
2022/08/18 05:59:21;;;;;;;15.05;7.50;;;19.30;99.90;;;;;;5108704;27;20112;-59
2022/08/18 06:01:55;;;;;;;12.50;5.75;;;19.50;99.90;;;;;;5141945;27;20503;-59
2022/08/18 06:04:33;;;;;;;12.85;5.90;;;19.60;99.90;;;;;;5147872;27;20066;-59
2022/08/18 06:07:04;;;;;;;11.85;5.80;;;19.70;99.90;;;;;;5135843;27;20123;-58
2022/08/18 06:09:39;;;;;;;13.95;6.78;;;19.60;99.90;;;;;;5147092;27;20102;-58
2022/08/18 06:12:14;;;;;;;13.10;6.80;;;19.70;99.90;;;;;;5151746;27;20035;-58
2022/08/18 06:14:41;;;;;;;9.95;6.18;;;19.60;99.90;;;;;;5151626;27;20051;-59
2022/08/18 06:17:33;;;;;;;7.47;4.47;;;19.70;99.90;;;;;;5128840;27;20046;-59
2022/08/18 06:20:09;;;;;;;7.82;5.07;;;19.70;99.90;;;;;;5115233;27;20038;-59
2022/08/18 06:22:44;;;;;;;7.18;4.25;;;19.70;99.90;;;;;;5140914;27;20104;-59
2022/08/18 06:25:20;;;;;;;11.63;5.05;;;19.80;99.90;;;;;;5133626;27;20482;-59
2022/08/18 06:27:57;;;;;;;12.95;4.40;;;19.90;99.90;;;;;;5134795;27;20074;-59
2022/08/18 06:30:32;;;;;;;9.35;4.22;;;19.90;99.90;;;;;;5118036;27;20054;-59
2022/08/18 06:33:12;;;;;;;7.03;4.32;;;20.00;99.90;;;;;;5136314;27;20077;-58
2022/08/18 06:35:45;;;;;;;10.52;4.30;;;19.90;99.90;;;;;;5135744;27;20098;-59
2022/08/18 06:38:40;;;;;;;10.40;3.80;;;19.90;99.90;;;;;;5136498;27;20372;-59
2022/08/18 06:41:15;;;;;;;7.53;3.78;;;19.90;99.90;;;;;;5148526;27;20055;-59
2022/08/18 06:43:51;;;;;;;10.60;4.47;;;19.90;99.90;;;;;;5135889;27;20063;-59
2022/08/18 06:46:21;;;;;;;11.30;3.63;;;20.00;99.90;;;;;;5138462;27;20047;-59
2022/08/18 06:48:54;;;;;;;11.93;3.80;;;19.90;99.90;;;;;;5133819;27;20078;-59
2022/08/18 06:51:27;;;;;;;9.32;3.72;;;20.00;99.90;;;;;;5134938;27;20043;-59
2022/08/18 06:53:57;;;;;;;8.70;3.60;;;20.10;99.90;;;;;;5135919;27;20055;-59
2022/08/18 06:56:32;;;;;;;12.43;3.20;;;20.20;99.90;;;;;;5135312;27;20262;-59
2022/08/18 06:59:24;;;;;;;8.60;3.40;;;20.10;99.90;;;;;;5151835;27;20134;-59
2022/08/18 07:01:54;;;;;;;9.98;3.38;;;20.00;99.90;;;;;;5117311;27;20480;-59
2022/08/18 07:04:38;;;;;;;9.35;3.40;;;20.00;99.90;;;;;;5117490;27;20559;-58
2022/08/18 07:07:19;;;;;;;10.98;3.30;;;20.00;99.90;;;;;;5135619;27;20096;-59
2022/08/18 07:09:46;;;;;;;;;;;20.00;99.90;;;;;;5116887;27;20051;-58
2022/08/18 07:12:21;;;;;;;12.13;3.60;;;19.80;99.90;;;;;;5139686;27;19923;-59
2022/08/18 07:14:51;;;;;;;11.13;3.03;;;19.80;99.90;;;;;;5123825;27;20055;-58
2022/08/18 07:17:24;;;;;;;11.43;3.72;;;19.80;99.90;;;;;;5154098;27;20103;-58
2022/08/18 07:20:08;;;;;;;11.45;3.60;;;19.80;99.90;;;;;;5137701;27;20090;-59
2022/08/18 07:22:54;;;;;;;8.55;3.40;;;19.70;99.90;;;;;;5136531;27;20050;-59
2022/08/18 07:25:25;;;;;;;6.70;3.35;;;19.70;99.90;;;;;;5129175;27;20059;-59
2022/08/18 07:27:55;;;;;;;10.43;3.78;;;19.70;99.90;;;;;;5117353;27;20104;-58
2022/08/18 07:30:30;;;;;;;8.55;3.60;;;19.70;99.90;;;;;;5116980;27;20138;-58
2022/08/18 07:33:04;;;;;;;6.50;3.17;;;19.70;99.90;;;;;;5137368;27;20524;-58
2022/08/18 07:35:38;;;;;;;6.22;2.80;;;19.70;99.90;;;;;;5137655;27;20489;-59
2022/08/18 07:38:14;;;;;;;7.38;3.15;;;19.80;99.90;;;;;;5152592;27;20053;-59
2022/08/18 07:40:50;;;;;;;7.90;2.75;;;19.80;99.90;;;;;;5156174;27;20071;-58
2022/08/18 07:43:26;;;;;;;10.05;3.17;;;20.00;99.90;;;;;;5154962;27;20512;-58
2022/08/18 07:46:00;;;;;;;6.88;3.05;;;20.20;99.90;;;;;;5124509;27;20055;-58
2022/08/18 07:48:32;;;;;;;7.40;2.33;;;20.30;99.90;;;;;;5135692;27;20047;-58
2022/08/18 07:51:12;;;;;;;5.38;2.17;;;20.40;99.90;;;;;;5115315;27;20055;-59
2022/08/18 07:53:50;;;;;;;8.60;2.25;;;20.60;99.90;;;;;;5117140;27;20104;-58
2022/08/18 07:56:24;;;;;;;6.22;1.90;;;20.80;99.90;;;;;;5117038;27;20142;-59
2022/08/18 07:58:58;;;;;;;5.10;2.85;;;21.20;99.90;;;;;;5116452;27;20059;-58
2022/08/18 08:01:34;;;;;;;5.07;2.40;;;21.90;99.90;;;;;;5116910;27;20115;-58
2022/08/18 08:04:13;;;;;;;5.15;2.00;;;22.60;99.90;;;;;;5135153;27;20078;-59
2022/08/18 08:06:44;;;;;;;6.85;1.92;;;22.90;99.90;;;;;;5133847;27;20521;-59
2022/08/18 08:09:21;;;;;;;4.30;1.83;;;22.90;99.90;;;;;;5116497;27;20062;-59
2022/08/18 08:11:54;;;;;;;5.55;1.90;;;22.70;99.90;;;;;;5116467;27;20051;-59
2022/08/18 08:14:39;;;;;;;7.70;2.45;;;22.50;99.90;;;;;;5116173;27;20047;-59
2022/08/18 08:17:16;;;;;;;3.85;1.75;;;22.70;99.90;;;;;;5134513;27;20047;-59
2022/08/18 08:20:01;;;;;;;5.35;2.00;;;22.90;99.90;;;;;;5115777;27;20054;-59
2022/08/18 08:22:32;;;;;;;3.83;1.58;;;22.90;99.90;;;;;;5135067;27;20104;-59
2022/08/18 08:25:06;;;;;;;5.07;1.35;;;22.80;99.90;;;;;;5134735;27;20175;-59
2022/08/18 08:27:44;;;;;;;3.17;1.50;;;22.50;99.90;;;;;;5134889;27;20083;-59
2022/08/18 08:30:16;;;;;;;4.82;1.65;;;22.40;99.90;;;;;;5143463;27;20047;-59
2022/08/18 08:32:57;;;;;;;5.88;1.35;;;22.40;99.90;;;;;;5119281;27;20127;-59
2022/08/18 08:35:33;;;;;;;6.63;1.65;;;22.40;99.90;;;;;;5139000;27;20103;-59
2022/08/18 08:38:06;;;;;;;5.03;1.55;;;22.40;99.90;;;;;;5133921;27;20415;-59
2022/08/18 08:40:44;;;;;;;3.40;1.55;;;22.40;99.90;;;;;;5148095;27;20042;-60
2022/08/18 08:43:16;;;;;;;4.53;2.10;;;22.60;99.90;;;;;;5138572;27;20047;-59
2022/08/18 08:45:48;;;;;;;6.53;1.60;;;22.60;99.90;;;;;;5134235;27;20507;-60
2022/08/18 08:48:24;;;;;;;5.38;1.60;;;22.50;99.90;;;;;;5122051;27;20086;-59
2022/08/18 08:50:57;;;;;;;3.70;1.65;;;22.50;99.90;;;;;;5154845;27;20120;-59
2022/08/18 08:53:29;;;;;;;3.55;1.35;;;22.30;99.90;;;;;;5154743;27;20050;-59
2022/08/18 08:56:00;;;;;;;3.75;1.60;;;22.20;99.90;;;;;;5133632;27;20082;-59
2022/08/18 08:58:34;;;;;;;3.65;1.30;;;22.10;99.90;;;;;;5115562;27;20490;-58
2022/08/18 09:01:03;;;;;;;4.97;1.75;;;22.00;99.90;;;;;;5114935;27;20055;-59
2022/08/18 09:03:40;;;;;;;4.90;1.63;;;22.00;99.90;;;;;;5133603;27;20107;-60
2022/08/18 09:06:20;;;;;;;3.78;2.05;;;21.80;99.90;;;;;;5147823;27;20404;-60
2022/08/18 09:08:57;;;;;;;;;;;21.80;99.90;;;;;;5154592;27;20454;-60
2022/08/18 09:11:52;;;;;;;5.43;1.70;;;21.70;99.90;;;;;;5153048;27;19948;-59
2022/08/18 09:14:56;;;;;;;3.83;1.60;;;21.70;99.90;;;;;;5154721;27;20066;-59
2022/08/18 09:17:46;;;;;;;4.82;1.70;;;21.70;99.90;;;;;;5153635;27;20049;-59
2022/08/18 09:20:28;;;;;;;4.63;1.75;;;21.70;99.90;;;;;;5154353;27;20042;-60
2022/08/18 09:23:04;;;;;;;4.40;1.92;;;21.80;99.90;;;;;;5153916;27;20474;-60
2022/08/18 09:25:43;;;;;;;3.03;1.70;;;21.80;99.90;;;;;;5154529;27;20054;-60
2022/08/18 09:28:12;;;;;;;4.57;1.65;;;21.80;99.90;;;;;;5154208;27;20088;-58
2022/08/18 09:30:46;;;;;;;2.88;1.35;;;21.80;99.90;;;;;;5152776;27;20505;-59
2022/08/18 09:33:23;;;;;;;4.85;3.00;;;21.90;99.90;;;;;;5154277;27;20486;-59
2022/08/18 09:36:08;;;;;;;2.33;1.60;;;22.10;99.90;;;;;;5153685;27;20079;-59
2022/08/18 09:41:36;;;;;;;5.05;1.83;;;22.50;99.90;;;;;;5133676;27;20043;-59
2022/08/18 09:44:12;;;;;;;2.20;1.50;;;22.60;99.90;;;;;;5114848;28;20051;-60
2022/08/18 09:47:06;;;;;;;6.05;1.50;;;22.80;99.90;;;;;;5134001;27;20049;-59
2022/08/18 09:49:45;;;;;;;4.32;1.40;;;23.10;99.90;;;;;;5080005;28;20086;-58
2022/08/18 09:52:54;;;;;;;4.68;1.58;;;23.50;99.90;;;;;;5132880;28;20043;-60
2022/08/18 09:55:54;;;;;;;4.22;1.45;;;24.30;99.90;;;;;;5134125;27;20047;-60
2022/08/18 09:58:54;;;;;;;3.55;1.42;;;25.00;99.90;;;;;;5117529;27;20070;-59
2022/08/18 10:01:31;;;;;;;6.00;2.77;;;25.20;99.90;;;;;;5135525;27;20078;-59
2022/08/18 10:04:30;;;;;;;5.22;1.63;;;24.90;99.90;;;;;;5153990;27;20058;-59
2022/08/18 10:07:21;;;;;;;3.20;1.67;;;24.60;99.90;;;;;;5152314;27;20554;-59
2022/08/18 10:09:58;;;;;;;3.88;1.55;;;24.40;99.90;;;;;;5133294;28;20043;-59
2022/08/18 10:12:47;;;;;;;3.80;1.40;;;24.10;99.90;;;;;;5132352;27;20047;-59
2022/08/18 10:15:50;;;;;;;4.85;1.58;;;23.90;99.90;;;;;;5137200;27;20051;-60
2022/08/18 10:18:33;;;;;;;3.30;1.40;;;23.80;99.90;;;;;;5116086;27;20047;-59
2022/08/18 10:21:08;;;;;;;5.88;1.45;;;23.60;99.90;;;;;;5136868;27;20047;-59
2022/08/18 10:23:51;;;;;;;7.07;1.85;;;23.40;99.90;;;;;;5137210;27;20048;-60
2022/08/18 10:27:12;;;;;;;4.32;1.33;;;23.30;99.90;;;;;;5120436;27;20099;-58
2022/08/18 10:29:54;;;;;;;5.00;1.55;;;23.10;99.90;;;;;;5154701;27;20099;-59
2022/08/18 10:32:43;;;;;;;3.03;1.48;;;22.80;99.90;;;;;;5156010;27;20051;-60
2022/08/18 10:35:44;;;;;;;4.05;1.50;;;22.70;99.90;;;;;;5148452;27;20146;-59
2022/08/18 10:38:16;;;;;;;3.63;1.60;;;22.80;99.90;;;;;;5107650;27;20047;-59
2022/08/18 10:40:55;;;;;;;2.88;1.50;;;22.60;99.90;;;;;;5155476;27;20078;-59
2022/08/18 10:43:32;;;;;;;4.60;1.45;;;22.70;99.90;;;;;;5155430;27;20090;-59
2022/08/18 10:45:58;;;;;;;5.68;1.90;;;22.80;99.90;;;;;;5155231;27;20051;-59
2022/08/18 10:48:29;;;;;;;5.13;1.75;;;22.90;99.90;;;;;;5154036;27;20054;-58
2022/08/18 10:51:03;;;;;;;2.80;1.33;;;22.90;99.90;;;;;;5137237;27;20490;-59
2022/08/18 10:53:37;;;;;;;4.70;1.50;;;22.90;99.90;;;;;;5155549;27;20043;-59
2022/08/18 10:56:11;;;;;;;3.65;1.60;;;22.70;99.90;;;;;;5137305;27;20107;-59
2022/08/18 10:59:03;;;;;;;6.03;1.85;;;22.70;99.90;;;;;;5155045;27;20111;-59
2022/08/18 11:01:57;;;;;;;4.88;1.67;;;22.70;99.90;;;;;;5153496;27;20042;-59
2022/08/18 11:04:30;;;;;;;3.25;1.67;;;22.90;99.90;;;;;;5136681;27;20055;-60
2022/08/18 11:07:07;;;;;;;6.05;1.70;;;23.00;99.90;;;;;;5134443;27;20155;-58
2022/08/18 11:09:35;;;;;;;6.55;1.60;;;23.20;99.90;;;;;;5126894;27;20063;-60
2022/08/18 11:12:04;;;;;;;3.45;1.55;;;23.20;99.90;;;;;;5084193;28;20048;-60
2022/08/18 11:14:57;;;;;;;3.67;1.50;;;23.20;99.90;;;;;;5090893;28;20580;-59
2022/08/18 11:17:35;;;;;;;3.55;1.50;;;23.30;99.90;;;;;;5092326;28;20101;-59
2022/08/18 11:20:08;;;;;;;3.65;2.00;;;23.50;99.90;;;;;;5102663;28;20048;-59
2022/08/18 11:22:36;;;;;;;3.95;1.70;;;23.80;99.90;;;;;;5102240;28;20126;-60
2022/08/18 11:25:17;;;;;;;4.38;1.70;;;24.00;99.90;;;;;;5099318;28;20076;-60
2022/08/18 11:27:47;;;;;;;4.80;1.80;;;24.30;99.90;;;;;;5093404;28;20048;-59
2022/08/18 11:30:14;;;;;;;5.20;1.80;;;24.60;99.90;;;;;;5093137;28;20116;-59
2022/08/18 11:32:42;;;;;;;3.08;1.45;;;24.80;99.90;;;;;;5093194;28;20127;-59
2022/08/18 11:35:15;;;;;;;5.90;1.60;;;25.40;99.90;;;;;;5094462;28;20051;-60
2022/08/18 11:37:45;;;;;;;2.83;1.77;;;25.80;99.90;;;;;;5092770;28;20055;-59
2022/08/18 11:40:35;;;;;;;4.35;1.45;;;26.00;99.90;;;;;;5093476;28;20484;-60
2022/08/18 11:43:10;;;;;;;5.45;1.73;;;26.20;99.90;;;;;;5092629;28;20108;-59
2022/08/18 11:45:53;;;;;;;2.60;1.40;;;26.00;99.90;;;;;;5094819;28;20081;-59
2022/08/18 11:48:23;;;;;;;2.78;1.30;;;26.00;99.90;;;;;;5093986;28;20093;-60
2022/08/18 11:51:00;;;;;;;;;;;25.80;99.90;;;;;;5092794;28;20508;-59
2022/08/18 11:53:41;;;;;;;4.93;1.40;;;25.60;99.90;;;;;;5093730;28;20529;-59
2022/08/18 11:56:17;;;;;;;2.80;1.60;;;25.80;99.90;;;;;;5094359;28;20052;-60
2022/08/18 11:58:47;;;;;;;4.28;1.67;;;26.10;99.90;;;;;;5093692;28;20079;-60
2022/08/18 12:01:31;;;;;;;;;;;26.50;99.90;;;;;;5094735;28;20044;-60
2022/08/18 12:03:59;;;;;;;3.63;1.58;;;26.70;99.90;;;;;;5090688;28;19959;-60
2022/08/18 12:06:29;;;;;;;3.35;1.75;;;26.80;99.90;;;;;;5092887;28;20056;-60
2022/08/18 12:08:59;;;;;;;;;;;27.50;99.90;;;;;;5094149;28;20048;-59
2022/08/18 12:11:28;;;;;;;2.15;1.23;;;28.00;98.50;;;;;;5124087;27;19923;-60
2022/08/18 12:14:07;;;;;;;3.40;1.50;;;28.30;99.90;;;;;;5155047;27;20050;-60
2022/08/18 12:16:37;;;;;;;4.40;1.80;;;28.50;98.60;;;;;;5116168;27;20054;-60
2022/08/18 12:19:04;;;;;;;3.75;1.73;;;28.60;99.30;;;;;;5133858;27;20039;-60
2022/08/18 12:21:32;;;;;;;3.00;1.38;;;28.30;98.70;;;;;;5134336;27;20452;-60
2022/08/18 12:23:59;;;;;;;2.88;1.45;;;28.00;98.50;;;;;;5116120;27;20053;-60
2022/08/18 12:26:25;;;;;;;4.55;2.00;;;27.70;98.60;;;;;;5117214;27;20058;-61
2022/08/18 12:28:52;;;;;;;7.22;1.27;;;28.20;98.70;;;;;;5118831;27;20462;-60
2022/08/18 12:31:20;;;;;;;4.28;1.40;;;28.50;98.50;;;;;;5115813;27;20111;-61
2022/08/18 12:33:47;;;;;;;3.90;1.20;;;28.80;98.00;;;;;;5132522;27;20047;-60
2022/08/18 12:36:14;;;;;;;3.78;1.60;;;29.10;97.50;;;;;;5114991;27;20525;-60
2022/08/18 12:38:44;;;;;;;4.53;1.63;;;29.30;97.20;;;;;;5115824;27;20043;-60
2022/08/18 12:41:14;;;;;;;4.50;1.58;;;29.90;96.60;;;;;;5136130;27;20051;-59
2022/08/18 12:43:41;;;;;;;3.47;1.60;;;30.20;95.90;;;;;;5118193;27;20054;-59
2022/08/18 12:46:08;;;;;;;3.47;1.20;;;30.90;95.10;;;;;;5133730;27;20057;-60
2022/08/18 12:48:37;;;;;;;2.83;1.30;;;31.60;94.40;;;;;;5133565;27;20051;-60
2022/08/18 12:51:05;;;;;;;3.47;1.20;;;32.30;93.40;;;;;;5134066;27;20501;-59
2022/08/18 12:53:32;;;;;;;5.63;1.30;;;32.20;92.60;;;;;;5133590;27;20162;-60
2022/08/18 12:56:00;;;;;;;2.00;1.20;;;32.40;92.00;;;;;;5142596;27;20053;-60
2022/08/18 12:58:27;;;;;;;2.50;1.08;;;32.70;91.20;;;;;;5153951;27;20042;-60
2022/08/18 13:00:55;;;;;;;4.53;1.27;;;32.70;91.00;;;;;;5153729;27;20043;-59
2022/08/18 13:03:22;;;;;;;3.03;1.33;;;33.00;90.40;;;;;;5154121;27;20073;-60
2022/08/18 13:05:50;;;;;;;1.90;1.10;;;32.60;90.30;;;;;;5154269;27;20042;-61
2022/08/18 13:08:19;;;;;;;2.92;1.30;;;32.00;88.50;;;;;;5153775;27;20580;-60
2022/08/18 13:10:46;;;;;;;2.17;1.10;;;31.30;89.40;;;;;;5149444;27;20089;-60
2022/08/18 13:13:15;;;;;;;2.75;1.23;;;30.50;90.50;;;;;;5153632;27;20110;-58
2022/08/18 13:15:42;;;;;;;3.47;1.15;;;29.90;90.90;;;;;;5150047;27;20518;-61
2022/08/18 13:18:10;;;;;;;2.38;1.30;;;29.60;91.30;;;;;;5122593;28;20039;-61
2022/08/18 13:20:37;;;;;;;3.08;1.10;;;29.20;91.70;;;;;;5133713;28;20047;-59
2022/08/18 13:23:05;;;;;;;2.83;1.20;;;29.40;91.30;;;;;;5139712;27;20123;-60
2022/08/18 13:25:32;;;;;;;3.10;1.52;;;29.30;91.20;;;;;;5140383;27;20094;-60